createdAt,value
2024-03-05T00:02:21.092Z,96242.22
2024-03-05T00:04:48.210Z,96241.44
2024-03-05T00:07:16.900Z,96248.53
2024-03-05T00:09:43.595Z,96248.28
2024-03-05T00:12:12.850Z,96254.88
2024-03-05T00:14:39.638Z,96254.09
2024-03-05T00:17:06.193Z,96254.56
2024-03-05T00:19:32.761Z,96255.38
2024-03-05T00:21:59.334Z,96254.31
2024-03-05T00:24:25.855Z,96261.44
2024-03-05T00:26:52.355Z,96264.06
2024-03-05T00:29:18.876Z,96263.53
2024-03-05T00:31:45.550Z,96260.31
2024-03-05T00:34:12.166Z,96262.16
2024-03-05T00:36:38.698Z,96262.16
2024-03-05T00:39:05.207Z,96264.25
2024-03-05T00:41:31.734Z,96266.31
2024-03-05T00:43:58.355Z,96270.25
2024-03-05T00:46:26.244Z,96271.28
2024-03-05T00:48:52.974Z,96272.88
2024-03-05T00:51:19.563Z,96270.47
2024-03-05T00:53:46.180Z,96262.88
2024-03-05T00:56:12.719Z,96268.16
2024-03-05T00:58:39.251Z,96267.91
2024-03-05T01:01:08.410Z,96270.31
2024-03-05T01:03:35.057Z,96269.53
2024-03-05T01:06:04.811Z,96267.69
2024-03-05T01:08:34.277Z,96270.88
2024-03-05T01:11:02.056Z,96273.50
2024-03-05T01:13:29.048Z,96272.47
2024-03-05T01:15:55.646Z,96275.91
2024-03-05T01:18:22.582Z,96270.38
2024-03-05T01:20:49.113Z,96274.06
2024-03-05T01:23:15.620Z,96275.66
2024-03-05T01:25:42.235Z,96274.63
2024-03-05T01:28:09.170Z,96276.47
2024-03-05T01:30:36.026Z,96270.88
2024-03-05T01:33:06.571Z,96273.50
2024-03-05T01:35:33.495Z,96276.16
2024-03-05T01:38:00.090Z,96266.97
2024-03-05T01:40:26.680Z,96265.91
2024-03-05T01:42:53.210Z,96268.78
2024-03-05T01:45:19.890Z,96268.25
2024-03-05T01:47:49.137Z,96267.44
2024-03-05T01:50:17.302Z,96262.72
2024-03-05T01:52:45.154Z,96265.34
2024-03-05T01:55:15.867Z,96271.91
2024-03-05T01:57:47.274Z,96268.00
2024-03-05T02:00:16.851Z,96269.03
2024-03-05T02:02:43.998Z,96265.91
2024-03-05T02:05:13.691Z,96263.44
2024-03-05T02:07:41.888Z,96267.06
2024-03-05T02:10:09.040Z,96271.22
2024-03-05T02:12:37.890Z,96277.53
2024-03-05T02:15:12.063Z,96275.13
2024-03-05T02:17:42.064Z,96272.97
2024-03-05T02:20:11.225Z,96269.53
2024-03-05T02:22:38.802Z,96281.13
2024-03-05T02:25:06.445Z,96274.44
2024-03-05T02:27:35.291Z,96276.28
2024-03-05T02:30:03.860Z,96269.16
2024-03-05T02:32:30.920Z,96272.84
2024-03-05T02:34:57.546Z,96275.25
2024-03-05T02:37:24.199Z,96277.31
2024-03-05T02:39:50.988Z,96274.91
2024-03-05T02:42:17.563Z,96279.16
2024-03-05T02:44:44.115Z,96280.66
2024-03-05T02:47:10.678Z,96285.06
2024-03-05T02:49:38.120Z,96289.84
2024-03-05T02:52:05.014Z,96290.66
2024-03-05T02:54:31.641Z,96288.81
2024-03-05T02:56:58.139Z,96288.25
2024-03-05T02:59:25.264Z,96288.00
2024-03-05T03:01:52.051Z,96288.25
2024-03-05T03:04:18.718Z,96289.84
2024-03-05T03:06:45.300Z,96289.06
2024-03-05T03:09:11.868Z,96288.25
2024-03-05T03:11:42.351Z,96287.69
2024-03-05T03:14:10.281Z,96296.97
2024-03-05T03:16:36.840Z,96291.94
2024-03-05T03:19:05.742Z,96294.31
2024-03-05T03:21:32.492Z,96301.19
2024-03-05T03:23:59.012Z,96308.06
2024-03-05T03:26:26.073Z,96301.44
2024-03-05T03:28:53.431Z,96302.22
2024-03-05T03:31:20.349Z,96305.09
2024-03-05T03:33:46.925Z,96305.81
2024-03-05T03:36:22.467Z,96307.88
2024-03-05T03:38:49.266Z,96316.59
2024-03-05T03:41:16.461Z,96311.81
2024-03-05T03:43:43.438Z,96313.41
2024-03-05T03:46:10.018Z,96314.44
2024-03-05T03:48:40.299Z,96328.66
2024-03-05T03:51:06.824Z,96324.97
2024-03-05T03:53:36.637Z,96327.28
2024-03-05T03:56:03.749Z,96320.66
2024-03-05T03:58:31.815Z,96315.38
2024-03-05T04:01:00.092Z,96316.94
2024-03-05T04:03:26.680Z,96319.56
2024-03-05T04:05:53.679Z,96325.28
2024-03-05T04:08:20.234Z,96326.66
2024-03-05T04:10:46.898Z,96330.56
2024-03-05T04:13:14.064Z,96326.66
2024-03-05T04:15:40.845Z,96328.72
2024-03-05T04:18:07.458Z,96328.97
2024-03-05T04:20:33.983Z,96326.34
2024-03-05T04:23:00.560Z,96330.31
2024-03-05T04:25:35.574Z,96327.94
2024-03-05T04:28:11.747Z,96334.81
2024-03-05T04:30:39.343Z,96342.84
2024-03-05T04:33:10.625Z,96346.50
2024-03-05T04:35:38.124Z,96346.28
2024-03-05T04:38:08.055Z,96349.72
2024-03-05T04:40:35.281Z,96343.88
2024-03-05T04:43:02.301Z,96338.63
2024-03-05T04:45:28.925Z,96341.72
2024-03-05T04:47:56.005Z,96344.13
2024-03-05T04:50:22.807Z,96350.19
2024-03-05T04:52:49.621Z,96359.13
2024-03-05T04:55:16.623Z,96366.56
2024-03-05T04:57:43.257Z,96361.63
2024-03-05T05:00:20.903Z,96355.38
2024-03-05T05:02:49.077Z,96367.28
2024-03-05T05:05:16.895Z,96367.28
2024-03-05T05:07:45.094Z,96364.63
2024-03-05T05:10:11.987Z,96365.91
2024-03-05T05:12:40.212Z,96361.03
2024-03-05T05:15:08.268Z,96362.88
2024-03-05T05:17:35.407Z,96358.19
2024-03-05T05:20:05.308Z,96365.03
2024-03-05T05:22:31.918Z,96358.97
2024-03-05T05:24:58.462Z,96364.25
2024-03-05T05:27:24.946Z,96357.38
2024-03-05T05:29:53.336Z,96360.47
2024-03-05T05:32:23.109Z,96357.84
2024-03-05T05:34:49.688Z,96358.88
2024-03-05T05:37:16.860Z,96352.03
2024-03-05T05:39:43.483Z,96351.78
2024-03-05T05:42:13.119Z,96345.47
2024-03-05T05:44:39.679Z,96357.84
2024-03-05T05:47:06.314Z,96363.13
2024-03-05T05:49:33.701Z,96366.47
2024-03-05T05:52:00.367Z,96359.91
2024-03-05T05:54:26.916Z,96359.69
2024-03-05T05:56:53.434Z,96357.84
2024-03-05T05:59:20.007Z,96346.13
2024-03-05T06:01:46.668Z,96342.53
2024-03-05T06:04:14.177Z,96343.41
2024-03-05T06:06:40.760Z,96340.53
2024-03-05T06:09:10.307Z,96345.00
2024-03-05T06:11:40.158Z,96348.44
2024-03-05T06:14:08.140Z,96349.00
2024-03-05T06:16:34.930Z,96351.31
2024-03-05T06:19:02.230Z,96350.84
2024-03-05T06:21:29.137Z,96350.69
2024-03-05T06:23:55.692Z,96357.81
2024-03-05T06:26:22.687Z,96360.75
2024-03-05T06:28:49.360Z,96366.03
2024-03-05T06:31:16.020Z,96368.66
2024-03-05T06:33:42.577Z,96368.44
2024-03-05T06:36:09.212Z,96374.97
2024-03-05T06:38:35.888Z,96381.50
2024-03-05T06:41:04.354Z,96384.06
2024-03-05T06:43:42.672Z,96385.56
2024-03-05T06:46:14.426Z,96390.50
2024-03-05T06:48:48.661Z,96388.34
2024-03-05T06:51:28.399Z,96393.63
2024-03-05T06:54:13.274Z,96393.56
2024-03-05T06:56:42.517Z,96396.72
2024-03-05T06:59:12.206Z,96401.22
2024-03-05T07:01:38.907Z,96393.78
2024-03-05T07:04:07.815Z,96394.88
2024-03-05T07:06:36.139Z,96395.78
2024-03-05T07:09:03.573Z,96400.81
2024-03-05T07:11:30.867Z,96404.38
2024-03-05T07:13:59.079Z,96417.50
2024-03-05T07:16:25.993Z,96416.94
2024-03-05T07:18:54.481Z,96412.69
2024-03-05T07:21:23.013Z,96414.53
2024-03-05T07:23:51.713Z,96417.97
2024-03-05T07:26:21.733Z,96409.59
2024-03-05T07:28:48.479Z,96413.31
2024-03-05T07:31:16.637Z,96422.53
2024-03-05T07:33:44.554Z,96424.94
2024-03-05T07:36:11.507Z,96420.75
2024-03-05T07:38:39.548Z,96417.09
2024-03-05T07:41:14.011Z,96412.84
2024-03-05T07:43:48.972Z,96419.16
2024-03-05T07:46:18.669Z,96418.06
2024-03-05T07:48:45.355Z,96422.53
2024-03-05T07:51:12.251Z,96420.75
2024-03-05T07:53:42.254Z,96416.28
2024-03-05T07:56:09.335Z,96428.44
2024-03-05T07:58:36.465Z,96434.97
2024-03-05T08:01:03.194Z,96430.72
2024-03-05T08:03:30.025Z,96440.47
2024-03-05T08:05:56.560Z,96434.50
2024-03-05T08:08:26.573Z,96435.28
2024-03-05T08:10:53.228Z,96438.25
2024-03-05T08:13:21.179Z,96436.44
2024-03-05T08:15:47.846Z,96444.78
2024-03-05T08:18:14.397Z,96448.56
2024-03-05T08:20:41.286Z,96440.44
2024-03-05T08:23:08.865Z,96440.28
2024-03-05T08:25:35.539Z,96439.00
2024-03-05T08:28:02.148Z,96435.59
2024-03-05T08:30:33.588Z,96434.22
2024-03-05T08:33:05.957Z,96436.94
2024-03-05T08:35:32.728Z,96437.50
2024-03-05T08:38:00.696Z,96434.63
2024-03-05T08:40:28.886Z,96431.19
2024-03-05T08:42:56.473Z,96431.53
2024-03-05T08:45:26.409Z,96438.94
2024-03-05T08:47:55.027Z,96443.16
2024-03-05T08:50:22.971Z,96442.13
2024-03-05T08:52:50.069Z,96441.44
2024-03-05T08:55:19.065Z,96440.63
2024-03-05T08:57:46.321Z,96443.81
2024-03-05T09:00:31.199Z,96443.91
2024-03-05T09:03:04.688Z,96444.31
2024-03-05T09:05:33.345Z,96459.75
2024-03-05T09:08:00.181Z,96446.06
2024-03-05T09:10:27.062Z,96451.53
2024-03-05T09:12:53.594Z,96445.59
2024-03-05T09:15:20.226Z,96443.28
2024-03-05T09:17:47.752Z,96454.41
2024-03-05T09:20:18.283Z,96441.59
2024-03-05T09:22:46.663Z,96457.72
2024-03-05T09:25:14.776Z,96445.41
2024-03-05T09:27:46.545Z,96446.84
2024-03-05T09:30:16.486Z,96443.97
2024-03-05T09:32:44.673Z,96452.44
2024-03-05T09:35:14.142Z,96443.03
2024-03-05T09:37:41.582Z,96449.13
2024-03-05T09:40:11.797Z,96448.66
2024-03-05T09:42:38.572Z,96452.22
2024-03-05T09:45:07.781Z,96451.44
2024-03-05T09:47:37.638Z,96455.44
2024-03-05T09:50:06.152Z,96450.16
2024-03-05T09:52:34.782Z,96451.50
2024-03-05T09:55:02.412Z,96460.63
2024-03-05T09:57:35.684Z,96453.28
2024-03-05T10:00:05.244Z,96460.47
2024-03-05T10:02:32.547Z,96463.66
2024-03-05T10:05:03.118Z,96453.09
2024-03-05T10:07:29.984Z,96451.06
2024-03-05T10:10:23.298Z,96450.34
2024-03-05T10:12:53.618Z,96455.13
2024-03-05T10:15:27.275Z,96456.00
2024-03-05T10:17:56.358Z,96459.44
2024-03-05T10:20:30.108Z,96453.34
2024-03-05T10:23:02.350Z,96455.75
2024-03-05T10:25:30.723Z,96455.19
2024-03-05T10:27:57.680Z,96456.47
2024-03-05T10:30:34.091Z,96452.31
2024-03-05T10:33:03.807Z,96460.00
2024-03-05T10:35:32.863Z,96452.31
2024-03-05T10:38:10.998Z,96460.03
2024-03-05T10:40:41.339Z,96461.38
2024-03-05T10:43:09.690Z,96466.06
2024-03-05T10:45:42.335Z,96462.69
2024-03-05T10:48:11.299Z,96458.69
2024-03-05T10:50:41.442Z,96462.38
2024-03-05T10:53:08.786Z,96455.09
2024-03-05T10:55:38.104Z,96461.97
2024-03-05T10:58:15.366Z,96464.59
2024-03-05T11:00:44.666Z,96462.22
2024-03-05T11:03:13.355Z,96462.47
2024-03-05T11:05:52.957Z,96459.81
2024-03-05T11:08:28.864Z,96464.84
2024-03-05T11:11:04.192Z,96454.81
2024-03-05T11:13:33.712Z,96454.53
2024-03-05T11:16:05.015Z,96454.59
2024-03-05T11:18:34.226Z,96455.38
2024-03-05T11:21:11.461Z,96455.69
2024-03-05T11:23:42.191Z,96454.94
2024-03-05T11:26:17.624Z,96452.53
2024-03-05T11:28:44.330Z,96453.88
2024-03-05T11:31:11.555Z,96457.38
2024-03-05T11:33:41.538Z,96457.94
2024-03-05T11:36:17.011Z,96447.34
2024-03-05T11:39:05.376Z,96445.50
2024-03-05T11:41:33.461Z,96443.88
2024-03-05T11:44:00.415Z,96444.16
2024-03-05T11:46:45.954Z,96445.22
2024-03-05T11:49:16.534Z,96445.72
2024-03-05T11:51:47.334Z,96446.25
2024-03-05T11:54:15.401Z,96440.47
2024-03-05T11:56:44.452Z,96443.72
2024-03-05T11:59:14.924Z,96446.84
2024-03-05T12:01:42.981Z,96443.72
2024-03-05T12:04:12.636Z,96439.25
2024-03-05T12:06:42.098Z,96439.22
2024-03-05T12:09:22.016Z,96440.34
2024-03-05T12:12:07.013Z,96439.28
2024-03-05T12:14:35.483Z,96442.47
2024-03-05T12:17:13.657Z,96431.66
2024-03-05T12:19:41.524Z,96441.69
2024-03-05T12:22:08.300Z,96441.19
2024-03-05T12:24:36.091Z,96445.41
2024-03-05T12:27:04.610Z,96442.22
2024-03-05T12:29:38.399Z,96436.72
2024-03-05T12:32:06.428Z,96434.84
2024-03-05T12:34:37.195Z,96441.72
2024-03-05T12:37:09.290Z,96435.09
2024-03-05T12:39:36.948Z,96443.03
2024-03-05T12:42:08.453Z,96439.56
2024-03-05T12:44:35.560Z,96439.00
2024-03-05T12:47:17.626Z,96438.50
2024-03-05T12:49:46.844Z,96438.75
2024-03-05T12:52:21.563Z,96444.56
2024-03-05T12:54:58.256Z,96443.22
2024-03-05T12:57:29.656Z,96441.88
2024-03-05T13:00:11.356Z,96441.09
2024-03-05T13:02:38.999Z,96445.06
2024-03-05T13:05:06.498Z,96438.44
2024-03-05T13:07:35.654Z,96442.94
2024-03-05T13:10:08.217Z,96446.09
2024-03-05T13:12:35.038Z,96437.63
2024-03-05T13:15:01.585Z,96436.81
2024-03-05T13:17:28.119Z,96446.84
2024-03-05T13:19:54.748Z,96444.75
2024-03-05T13:22:23.204Z,96441.56
2024-03-05T13:24:49.755Z,96434.44
2024-03-05T13:27:16.497Z,96437.31
2024-03-05T13:29:42.994Z,96434.44
2024-03-05T13:32:09.613Z,96442.63
2024-03-05T13:34:36.247Z,96441.56
2024-03-05T13:37:02.914Z,96438.41
2024-03-05T13:39:29.469Z,96438.38
2024-03-05T13:41:56.170Z,96440.22
2024-03-05T13:44:23.826Z,96439.13
2024-03-05T13:46:52.103Z,96448.91
2024-03-05T13:49:20.825Z,96442.81
2024-03-05T13:51:47.719Z,96441.22
2024-03-05T13:54:14.559Z,96446.50
2024-03-05T13:56:44.204Z,96440.66
2024-03-05T13:59:12.091Z,96441.72
2024-03-05T14:01:39.495Z,96445.41
2024-03-05T14:04:10.869Z,96441.66
2024-03-05T14:06:38.678Z,96442.47
2024-03-05T14:09:05.778Z,96442.72
2024-03-05T14:11:33.529Z,96437.66
2024-03-05T14:14:02.101Z,96436.63
2024-03-05T14:16:28.890Z,96441.91
2024-03-05T14:18:56.553Z,96437.16
2024-03-05T14:21:23.631Z,96448.31
2024-03-05T14:23:50.195Z,96442.97
2024-03-05T14:26:18.063Z,96453.53
2024-03-05T14:28:44.993Z,96454.03
2024-03-05T14:31:12.672Z,96451.88
2024-03-05T14:33:41.946Z,96450.84
2024-03-05T14:36:13.544Z,96457.19
2024-03-05T14:38:43.395Z,96452.16
2024-03-05T14:41:11.142Z,96457.44
2024-03-05T14:43:38.604Z,96465.38
2024-03-05T14:46:06.600Z,96468.28
2024-03-05T14:48:34.214Z,96469.31
2024-03-05T14:51:01.449Z,96466.44
2024-03-05T14:53:28.425Z,96464.28
2024-03-05T14:55:55.327Z,96463.47
2024-03-05T14:58:22.034Z,96469.25
2024-03-05T15:00:48.586Z,96462.13
2024-03-05T15:03:15.131Z,96465.56
2024-03-05T15:05:42.620Z,96461.34
2024-03-05T15:08:11.045Z,96463.19
2024-03-05T15:10:37.774Z,96469.25
2024-03-05T15:13:04.489Z,96465.03
2024-03-05T15:15:31.055Z,96463.66
2024-03-05T15:17:57.611Z,96462.03
2024-03-05T15:20:24.926Z,96465.72
2024-03-05T15:22:51.884Z,96463.34
2024-03-05T15:25:23.770Z,96467.31
2024-03-05T15:28:01.106Z,96470.22
2024-03-05T15:30:33.094Z,96467.81
2024-03-05T15:33:01.371Z,96466.47
2024-03-05T15:35:29.737Z,96466.72
2024-03-05T15:37:59.959Z,96463.59
2024-03-05T15:40:27.623Z,96466.97
2024-03-05T15:42:57.071Z,96469.06
2024-03-05T15:45:30.707Z,96465.84
2024-03-05T15:47:59.589Z,96473.47
2024-03-05T15:50:30.781Z,96464.25
2024-03-05T15:53:03.711Z,96473.22
2024-03-05T15:55:30.850Z,96476.91
2024-03-05T15:58:04.934Z,96479.56
2024-03-05T16:00:37.104Z,96475.31
2024-03-05T16:03:06.423Z,96475.03
2024-03-05T16:05:42.421Z,96478.97
2024-03-05T16:08:15.923Z,96477.38
2024-03-05T16:10:48.285Z,96483.47
2024-03-05T16:13:16.666Z,96480.25
2024-03-05T16:15:46.852Z,96486.59
2024-03-05T16:18:14.252Z,96486.03
2024-03-05T16:20:40.822Z,96488.94
2024-03-05T16:23:11.527Z,96483.63
2024-03-05T16:25:42.687Z,96494.22
2024-03-05T16:28:11.472Z,96490.78
2024-03-05T16:30:39.018Z,96492.84
2024-03-05T16:33:06.743Z,96502.63
2024-03-05T16:35:33.830Z,96506.56
2024-03-05T16:38:01.591Z,96500.22
2024-03-05T16:40:28.454Z,96505.50
2024-03-05T16:42:57.252Z,96507.09
2024-03-05T16:45:25.625Z,96504.47
2024-03-05T16:47:54.402Z,96508.41
2024-03-05T16:50:21.137Z,96513.44
2024-03-05T16:52:50.072Z,96514.22
2024-03-05T16:55:18.755Z,96516.31
2024-03-05T16:57:46.375Z,96516.56
2024-03-05T17:00:18.064Z,96520.81
2024-03-05T17:02:46.421Z,96518.88
2024-03-05T17:05:19.070Z,96526.25
2024-03-05T17:07:47.938Z,96519.38
2024-03-05T17:10:16.539Z,96529.94
2024-03-05T17:12:43.647Z,96533.63
2024-03-05T17:15:13.502Z,96532.03
2024-03-05T17:17:42.085Z,96539.41
2024-03-05T17:20:12.727Z,96539.06
2024-03-05T17:22:42.821Z,96544.56
2024-03-05T17:25:09.967Z,96546.16
2024-03-05T17:27:36.822Z,96540.06
2024-03-05T17:30:06.931Z,96541.84
2024-03-05T17:32:33.481Z,96541.84
2024-03-05T17:35:00.266Z,96548.16
2024-03-05T17:37:26.926Z,96547.13
2024-03-05T17:39:53.450Z,96549.28
2024-03-05T17:42:20.026Z,96557.19
2024-03-05T17:44:46.637Z,96547.69
2024-03-05T17:47:13.302Z,96548.09
2024-03-05T17:49:40.141Z,96553.13
2024-03-05T17:52:06.725Z,96552.81
2024-03-05T17:54:33.280Z,96555.44
2024-03-05T17:56:59.865Z,96556.25
2024-03-05T17:59:26.561Z,96555.75
2024-03-05T18:01:53.930Z,96560.72
2024-03-05T18:04:20.670Z,96560.56
2024-03-05T18:06:47.241Z,96560.09
2024-03-05T18:09:22.693Z,96561.34
2024-03-05T18:11:49.496Z,96560.19
2024-03-05T18:14:16.043Z,96563.16
2024-03-05T18:16:42.716Z,96556.28
2024-03-05T18:19:09.702Z,96571.53
2024-03-05T18:21:36.262Z,96574.75
2024-03-05T18:24:05.141Z,96573.06
2024-03-05T18:26:31.930Z,96580.50
2024-03-05T18:28:58.960Z,96581.88
2024-03-05T18:31:31.919Z,96579.78
2024-03-05T18:34:05.496Z,96592.66
2024-03-05T18:36:32.037Z,96588.97
2024-03-05T18:38:58.804Z,96589.47
2024-03-05T18:41:25.428Z,96592.56
2024-03-05T18:43:53.166Z,96588.25
2024-03-05T18:46:20.114Z,96587.59
2024-03-05T18:48:47.005Z,96592.53
2024-03-05T18:51:15.137Z,96596.22
2024-03-05T18:53:46.562Z,96593.34
2024-03-05T18:56:17.216Z,96595.75
2024-03-05T18:58:44.339Z,96597.50
2024-03-05T19:01:12.870Z,96596.97
2024-03-05T19:03:40.107Z,96594.06
2024-03-05T19:06:07.043Z,96590.38
2024-03-05T19:08:33.738Z,96597.03
2024-03-05T19:11:00.354Z,96592.97
2024-03-05T19:13:27.052Z,96602.84
2024-03-05T19:15:53.538Z,96598.13
2024-03-05T19:18:20.802Z,96594.22
2024-03-05T19:20:47.536Z,96592.38
2024-03-05T19:23:14.147Z,96596.06
2024-03-05T19:25:40.723Z,96605.97
2024-03-05T19:28:07.316Z,96604.13
2024-03-05T19:30:33.847Z,96607.09
2024-03-05T19:33:02.021Z,96604.69
2024-03-05T19:35:28.582Z,96598.13
2024-03-05T19:37:57.456Z,96605.72
2024-03-05T19:40:26.541Z,96606.53
2024-03-05T19:42:59.161Z,96600.44
2024-03-05T19:45:30.538Z,96607.78
2024-03-05T19:47:58.557Z,96607.78
2024-03-05T19:50:25.497Z,96604.91
2024-03-05T19:52:56.108Z,96598.28
2024-03-05T19:55:23.525Z,96605.16
2024-03-05T19:57:51.199Z,96597.72
2024-03-05T20:00:19.804Z,96598.75
2024-03-05T20:02:48.211Z,96599.00
2024-03-05T20:05:17.988Z,96592.34
2024-03-05T20:07:45.591Z,96595.22
2024-03-05T20:10:12.605Z,96590.84
2024-03-05T20:12:40.345Z,96589.09
2024-03-05T20:15:14.612Z,96597.56
2024-03-05T20:17:42.480Z,96595.19
2024-03-05T20:20:17.495Z,96590.69
2024-03-05T20:22:48.445Z,96595.97
2024-03-05T20:25:19.209Z,96594.38
2024-03-05T20:27:50.967Z,96599.31
2024-03-05T20:30:17.941Z,96595.06
2024-03-05T20:32:45.979Z,96593.94
2024-03-05T20:35:16.502Z,96597.63
2024-03-05T20:37:52.211Z,96599.47
2024-03-05T20:40:21.118Z,96597.16
2024-03-05T20:42:48.119Z,96603.69
2024-03-05T20:45:15.286Z,96599.22
2024-03-05T20:47:42.460Z,96599.22
2024-03-05T20:50:11.143Z,96594.41
2024-03-05T20:52:38.289Z,96592.56
2024-03-05T20:55:05.331Z,96592.56
2024-03-05T20:57:37.286Z,96595.31
2024-03-05T21:00:07.989Z,96596.13
2024-03-05T21:02:38.023Z,96598.28
2024-03-05T21:05:06.055Z,96600.44
2024-03-05T21:07:33.805Z,96603.31
2024-03-05T21:10:10.360Z,96607.88
2024-03-05T21:12:38.737Z,96606.06
2024-03-05T21:15:12.384Z,96610.53
2024-03-05T21:17:39.876Z,96605.81
2024-03-05T21:20:11.333Z,96603.41
2024-03-05T21:22:39.198Z,96598.94
2024-03-05T21:25:09.065Z,96598.13
2024-03-05T21:27:36.568Z,96598.13
2024-03-05T21:30:07.240Z,96603.19
2024-03-05T21:32:34.246Z,96603.97
2024-03-05T21:35:07.665Z,96602.38
2024-03-05T21:37:36.577Z,96600.78
2024-03-05T21:40:06.141Z,96606.28
2024-03-05T21:42:33.771Z,96612.94
2024-03-05T21:45:00.673Z,96613.97
2024-03-05T21:47:27.431Z,96607.88
2024-03-05T21:49:54.013Z,96617.63
2024-03-05T21:52:20.628Z,96619.47
2024-03-05T21:54:47.161Z,96623.97
2024-03-05T21:57:13.784Z,96620.28
2024-03-05T21:59:40.306Z,96620.75
2024-03-05T22:02:07.811Z,96620.75
2024-03-05T22:04:34.674Z,96621.56
2024-03-05T22:07:01.293Z,96612.84
2024-03-05T22:09:27.818Z,96621.56
2024-03-05T22:11:54.414Z,96617.31
2024-03-05T22:14:20.968Z,96613.88
2024-03-05T22:16:47.623Z,96618.59
2024-03-05T22:19:14.357Z,96623.06
2024-03-05T22:21:40.969Z,96619.84
2024-03-05T22:24:07.869Z,96621.13
2024-03-05T22:26:34.826Z,96615.03
2024-03-05T22:29:02.061Z,96618.00
2024-03-05T22:31:31.038Z,96614.56
2024-03-05T22:33:57.825Z,96618.59
2024-03-05T22:36:25.170Z,96614.34
2024-03-05T22:38:51.950Z,96610.44
2024-03-05T22:41:18.816Z,96609.63
2024-03-05T22:43:45.505Z,96619.38
2024-03-05T22:46:12.066Z,96613.06
2024-03-05T22:48:39.793Z,96619.38
2024-03-05T22:51:09.917Z,96611.69
2024-03-05T22:53:38.579Z,96623.84
2024-03-05T22:56:05.971Z,96614.56
2024-03-05T22:58:32.556Z,96619.06
2024-03-05T23:00:59.769Z,96622.72
2024-03-05T23:03:29.346Z,96627.19
2024-03-05T23:05:55.995Z,96622.38
2024-03-05T23:08:22.781Z,96623.75
2024-03-05T23:10:49.807Z,96620.31
2024-03-05T23:13:16.443Z,96625.03
2024-03-05T23:15:43.389Z,96628.47
2024-03-05T23:18:10.445Z,96618.16
2024-03-05T23:20:37.077Z,96617.91
2024-03-05T23:23:04.493Z,96620.78
2024-03-05T23:25:31.105Z,96628.69
2024-03-05T23:28:00.282Z,96624.47
2024-03-05T23:30:27.082Z,96625.25
2024-03-05T23:32:54.182Z,96621.25
2024-03-05T23:35:21.146Z,96618.38
2024-03-05T23:37:48.007Z,96619.66
2024-03-05T23:40:14.898Z,96620.00
2024-03-05T23:42:41.788Z,96619.41
2024-03-05T23:45:08.920Z,96622.06
2024-03-05T23:47:35.583Z,96623.09
2024-03-05T23:50:02.933Z,96630.22
2024-03-05T23:52:29.692Z,96639.16
2024-03-05T23:54:59.976Z,96634.69
2024-03-05T23:57:28.962Z,96633.31
2024-03-05T23:59:55.659Z,96638.59
